Terminal Aerodrome Forecast
Issued by NWS Bismarck, ND

Home | Current Version | Previous Version | Graphics & Text | Print | Product List | Glossary On
Versions: 1 2 3 4 5 6 7 8 9 10 11 12 13 14 15 16 17 18 19 20 21 22 23 24 25 26
361
FTUS43 KBIS 231739
TAFBIS
TAF
KBIS 231739Z 2318/2418 07008KT P6SM VCSH SCT015 BKN025
      TEMPO 2318/2322 -SN BKN015
     FM232200 04008KT P6SM BKN015
     FM241100 02007KT P6SM BKN035
     FM241600 35007KT P6SM BKN035=

USA.gov is the U.S. government's official web portal to all federal, state and local government web resources and services.